Time;durP1;ratioP1;P1;durP2;ratioP2;P2;SDS_P1;SDS_P2;PMS_P1;PMS_P2;Temp;Humidity;BMP_temperature;BMP_pressure;BME280_temperature;BME280_humidity;BME280_pressure;Samples;Min_cycle;Max_cycle;Signal;HPM_P1;HPM_P2
2022/01/20 00:02:03;;;;;;;13.80;10.98;;;4.10;99.90;;;;;;5026275;28;20032;-62
2022/01/20 00:04:52;;;;;;;15.43;10.57;;;4.10;99.90;;;;;;5055439;28;20124;-60
2022/01/20 00:08:05;;;;;;;14.10;10.55;;;4.10;99.90;;;;;;5054795;28;20032;-60
2022/01/20 00:25:55;;;;;;;14.85;11.48;;;4.00;99.90;;;;;;5055233;28;20064;-61
2022/01/20 00:28:50;;;;;;;14.88;9.85;;;4.00;99.90;;;;;;5054345;28;20122;-62
2022/01/20 00:31:46;;;;;;;13.02;9.65;;;4.00;99.90;;;;;;5054785;28;20523;-59
2022/01/20 00:35:04;;;;;;;10.65;7.30;;;4.10;99.90;;;;;;5054800;28;20416;-58
2022/01/20 00:37:36;;;;;;;11.48;4.63;;;4.10;99.90;;;;;;5045962;28;20052;-62
2022/01/20 00:40:20;;;;;;;11.73;4.50;;;4.20;99.90;;;;;;5054953;28;20043;-62
2022/01/20 00:43:04;;;;;;;8.38;3.58;;;4.20;99.90;;;;;;5053764;28;20040;-60
2022/01/20 00:45:49;;;;;;;10.70;3.30;;;4.20;99.90;;;;;;5048576;28;20457;-58
2022/01/20 00:48:33;;;;;;;20.77;4.45;;;4.30;99.90;;;;;;5053388;28;20116;-61
2022/01/20 00:51:17;;;;;;;17.25;4.30;;;4.30;99.90;;;;;;5054253;28;20052;-58
2022/01/20 00:54:01;;;;;;;12.75;3.90;;;4.30;99.90;;;;;;5054477;28;20044;-61
2022/01/20 00:56:45;;;;;;;21.38;4.78;;;4.30;99.90;;;;;;5053351;28;20048;-61
2022/01/20 00:59:30;;;;;;;17.77;4.73;;;4.30;99.90;;;;;;5051555;28;20059;-62
2022/01/20 01:02:14;;;;;;;;;;;4.30;99.90;;;;;;5054364;28;20131;-62
2022/01/20 01:04:59;;;;;;;20.67;4.93;;;4.40;99.90;;;;;;5052618;28;20363;-62
2022/01/20 01:07:47;;;;;;;27.83;5.88;;;4.40;99.90;;;;;;5052124;28;20040;-59
2022/01/20 01:10:34;;;;;;;18.70;4.45;;;4.40;99.90;;;;;;5051383;28;20188;-61
2022/01/20 01:13:19;;;;;;;25.83;5.60;;;4.30;99.90;;;;;;5045590;28;20044;-61
2022/01/20 01:16:06;;;;;;;20.55;6.20;;;4.30;99.90;;;;;;5046924;28;20128;-61
2022/01/20 01:25:07;;;;;;;39.88;8.05;;;4.50;99.90;;;;;;5043228;28;20146;-58
2022/01/20 01:27:52;;;;;;;18.42;5.55;;;4.40;99.90;;;;;;5050582;28;20105;-56
2022/01/20 01:33:50;;;;;;;18.50;5.07;;;4.30;99.90;;;;;;5053266;28;20412;-59
2022/01/20 01:36:50;;;;;;;15.18;4.97;;;4.40;99.90;;;;;;5053355;28;20399;-58
2022/01/20 01:39:34;;;;;;;15.25;4.43;;;4.30;99.90;;;;;;5053499;28;20052;-65
2022/01/20 01:42:24;;;;;;;19.88;5.55;;;4.50;99.90;;;;;;5038151;28;20040;-56
2022/01/20 01:45:14;;;;;;;15.73;4.22;;;4.70;99.90;;;;;;5052215;28;20511;-62
2022/01/20 01:47:59;;;;;;;15.93;5.38;;;4.70;99.90;;;;;;5052526;28;20515;-61
2022/01/20 01:50:43;;;;;;;13.35;4.07;;;4.70;99.90;;;;;;5053113;28;20055;-62
2022/01/20 01:53:28;;;;;;;16.58;4.25;;;4.70;99.90;;;;;;5051319;28;20040;-60
2022/01/20 01:56:12;;;;;;;18.15;4.07;;;4.70;99.90;;;;;;5053063;28;20508;-60
2022/01/20 01:58:56;;;;;;;25.98;4.78;;;4.70;99.90;;;;;;5051688;28;20047;-68
2022/01/20 02:01:41;;;;;;;14.45;3.92;;;4.30;99.90;;;;;;5051397;28;20044;-63
2022/01/20 02:04:25;;;;;;;15.75;4.80;;;4.20;99.90;;;;;;5051725;28;20499;-61
2022/01/20 02:19:19;;;;;;;16.52;5.03;;;3.40;99.90;;;;;;5036612;28;20091;-54
2022/01/20 02:22:03;;;;;;;18.50;4.65;;;3.60;99.90;;;;;;5051628;28;20067;-55
2022/01/20 02:24:47;;;;;;;16.65;4.65;;;3.50;99.90;;;;;;5052259;28;20036;-53
2022/01/20 02:27:31;;;;;;;15.07;3.95;;;3.40;99.90;;;;;;5052296;28;20032;-56
2022/01/20 02:30:17;;;;;;;13.18;3.78;;;3.50;99.90;;;;;;5052448;28;20086;-53
2022/01/20 02:33:06;;;;;;;13.10;4.45;;;3.40;99.90;;;;;;5051995;28;20093;-56
2022/01/20 02:35:53;;;;;;;17.98;4.07;;;3.30;99.90;;;;;;5052259;28;20032;-57
2022/01/20 02:38:46;;;;;;;14.65;4.10;;;3.30;99.90;;;;;;5051928;28;20090;-57
2022/01/20 02:47:55;;;;;;;10.98;3.65;;;3.20;99.90;;;;;;5009554;28;20558;-59
2022/01/20 02:50:40;;;;;;;14.68;3.97;;;3.10;99.90;;;;;;5009481;28;20041;-59
2022/01/20 02:53:24;;;;;;;13.48;3.83;;;3.10;99.90;;;;;;5045404;28;20479;-61
2022/01/20 02:56:08;;;;;;;20.30;5.00;;;3.10;99.90;;;;;;5050538;28;20091;-56
2022/01/20 02:58:52;;;;;;;15.27;4.20;;;3.20;99.90;;;;;;5051573;28;20463;-54
2022/01/20 03:01:37;;;;;;;17.43;3.77;;;3.00;99.90;;;;;;5051586;28;20480;-56
2022/01/20 03:04:24;;;;;;;18.67;4.10;;;3.00;99.90;;;;;;5051703;28;20040;-56
2022/01/20 03:07:09;;;;;;;16.40;5.45;;;3.00;99.90;;;;;;5051323;28;21182;-57
2022/01/20 03:09:53;;;;;;;16.30;4.13;;;3.00;99.90;;;;;;5051738;28;20086;-56
2022/01/20 03:12:37;;;;;;;13.48;4.32;;;3.00;99.90;;;;;;5050890;28;20072;-55
2022/01/20 03:15:21;;;;;;;22.00;5.68;;;3.10;99.90;;;;;;5051192;28;20082;-57
2022/01/20 03:18:09;;;;;;;18.13;4.40;;;3.10;99.90;;;;;;5051548;28;20079;-56
2022/01/20 03:20:52;;;;;;;19.92;4.97;;;3.10;99.90;;;;;;5051383;28;20055;-58
2022/01/20 03:23:37;;;;;;;16.83;4.80;;;3.10;99.90;;;;;;5051082;28;20495;-56
2022/01/20 03:26:21;;;;;;;12.70;4.43;;;3.20;99.90;;;;;;5051111;28;20040;-56
2022/01/20 03:29:06;;;;;;;17.92;4.93;;;3.10;99.90;;;;;;5051751;28;20036;-52
2022/01/20 03:31:50;;;;;;;27.48;5.10;;;3.10;99.90;;;;;;5050241;28;20055;-56
2022/01/20 03:34:35;;;;;;;15.90;3.97;;;3.10;99.90;;;;;;5054701;28;20052;-56
2022/01/20 03:37:19;;;;;;;18.27;4.30;;;3.00;99.90;;;;;;5054833;28;20396;-56
2022/01/20 03:40:04;;;;;;;18.10;4.13;;;3.10;99.90;;;;;;5054408;28;20557;-54
2022/01/20 03:42:48;;;;;;;18.75;4.22;;;3.00;99.90;;;;;;5054544;28;20128;-51
2022/01/20 03:45:34;;;;;;;19.33;4.50;;;3.10;99.90;;;;;;5054945;28;20036;-54
2022/01/20 03:48:19;;;;;;;18.73;6.10;;;3.10;99.90;;;;;;5054282;28;20040;-52
2022/01/20 03:51:03;;;;;;;23.63;5.55;;;3.10;99.90;;;;;;5054698;28;20047;-55
2022/01/20 03:53:49;;;;;;;18.70;4.85;;;3.30;99.90;;;;;;5054630;28;20507;-54
2022/01/20 03:56:34;;;;;;;16.77;4.60;;;3.30;99.90;;;;;;5054137;28;20032;-54
2022/01/20 03:59:18;;;;;;;22.35;4.72;;;3.40;99.90;;;;;;5054462;28;20044;-55
2022/01/20 04:02:04;;;;;;;22.92;5.32;;;3.30;99.90;;;;;;5053268;28;20071;-51
2022/01/20 04:04:48;;;;;;;18.92;4.90;;;3.40;99.90;;;;;;5054559;28;20171;-54
2022/01/20 04:07:32;;;;;;;27.33;5.27;;;3.50;99.90;;;;;;5053194;28;20413;-56
2022/01/20 04:10:16;;;;;;;28.42;6.60;;;3.50;99.90;;;;;;5054110;28;20771;-57
2022/01/20 04:13:01;;;;;;;25.00;5.03;;;3.60;99.90;;;;;;5054101;28;20039;-57
2022/01/20 04:15:48;;;;;;;22.17;5.22;;;3.50;99.90;;;;;;5053943;28;20048;-58
2022/01/20 04:18:32;;;;;;;19.70;4.78;;;3.60;99.90;;;;;;5054320;28;20507;-56
2022/01/20 04:21:19;;;;;;;26.35;5.47;;;3.60;99.90;;;;;;5053813;28;20523;-55
2022/01/20 04:24:05;;;;;;;19.23;4.72;;;3.60;99.90;;;;;;5053931;28;20516;-57
2022/01/20 04:26:49;;;;;;;24.17;5.57;;;3.60;99.90;;;;;;5053918;28;20112;-55
2022/01/20 04:29:34;;;;;;;21.23;4.50;;;3.70;99.90;;;;;;5053877;28;20087;-53
2022/01/20 04:32:18;;;;;;;21.10;6.53;;;3.70;99.90;;;;;;5053543;28;20036;-55
2022/01/20 04:35:02;;;;;;;22.10;4.88;;;3.70;99.90;;;;;;5053822;28;20404;-53
2022/01/20 04:37:48;;;;;;;28.00;5.40;;;3.70;99.90;;;;;;5053328;28;20424;-57
2022/01/20 04:40:39;;;;;;;24.80;6.30;;;3.80;99.90;;;;;;5053781;28;20031;-53
2022/01/20 04:43:24;;;;;;;18.85;4.57;;;3.80;99.90;;;;;;5053344;28;20543;-56
2022/01/20 04:46:17;;;;;;;27.13;6.13;;;3.90;99.90;;;;;;5040446;28;20515;-57
2022/01/20 04:58:04;;;;;;;23.20;6.50;;;4.00;99.90;;;;;;5053164;28;20036;-56
2022/01/20 05:00:48;;;;;;;16.67;4.88;;;4.10;99.90;;;;;;5053210;28;20055;-56
2022/01/20 05:03:32;;;;;;;23.30;5.38;;;4.00;99.90;;;;;;5054797;28;20040;-54
2022/01/20 05:06:17;;;;;;;21.83;5.50;;;4.00;99.90;;;;;;5052918;28;20103;-56
2022/01/20 05:09:01;;;;;;;25.08;5.50;;;4.00;99.90;;;;;;5053154;28;20082;-56
2022/01/20 05:11:51;;;;;;;22.63;6.97;;;4.10;99.90;;;;;;5053193;28;20403;-53
2022/01/20 05:14:35;;;;;;;26.95;6.07;;;4.10;99.90;;;;;;5052655;28;20059;-51
2022/01/20 05:17:19;;;;;;;19.10;5.55;;;4.10;99.90;;;;;;5052985;28;20036;-54
2022/01/20 05:20:04;;;;;;;23.80;5.80;;;4.10;99.90;;;;;;5052191;28;20044;-53
2022/01/20 05:22:48;;;;;;;24.92;6.30;;;4.20;99.90;;;;;;5047520;28;20036;-55
2022/01/20 05:25:32;;;;;;;23.48;5.30;;;4.30;99.90;;;;;;5033468;28;20371;-56
2022/01/20 05:28:18;;;;;;;26.15;5.78;;;4.40;99.90;;;;;;5048173;28;20120;-57
2022/01/20 05:31:03;;;;;;;29.92;6.10;;;4.30;99.90;;;;;;5052989;28;20035;-57
2022/01/20 05:33:47;;;;;;;19.77;5.00;;;4.20;99.90;;;;;;5052783;28;20032;-53
2022/01/20 05:36:32;;;;;;;26.33;6.60;;;4.20;99.90;;;;;;5052550;28;20052;-54
2022/01/20 05:39:16;;;;;;;23.55;5.00;;;4.30;99.90;;;;;;5052949;28;20405;-57
2022/01/20 05:42:00;;;;;;;24.50;4.95;;;4.20;99.90;;;;;;5052049;28;20086;-55
2022/01/20 05:44:49;;;;;;;15.00;3.60;;;4.20;99.90;;;;;;5052193;28;20428;-53
2022/01/20 05:47:43;;;;;;;12.50;3.60;;;3.80;99.90;;;;;;5051773;28;20545;-54
2022/01/20 05:50:27;;;;;;;11.38;3.58;;;3.90;99.90;;;;;;5051934;28;20036;-56
2022/01/20 05:53:12;;;;;;;12.77;3.90;;;3.70;99.90;;;;;;5051630;28;20036;-55
2022/01/20 05:55:56;;;;;;;12.63;3.30;;;3.60;99.90;;;;;;5034940;28;20036;-57
2022/01/20 05:58:40;;;;;;;12.63;3.88;;;3.50;99.90;;;;;;5051717;28;20119;-54
2022/01/20 06:01:24;;;;;;;19.55;4.18;;;3.50;99.90;;;;;;5050928;28;20494;-58
2022/01/20 06:04:09;;;;;;;10.82;3.83;;;3.30;99.90;;;;;;5052097;28;20040;-57
2022/01/20 06:06:53;;;;;;;12.60;3.83;;;3.30;99.90;;;;;;5052160;28;20573;-57
2022/01/20 06:09:37;;;;;;;13.80;3.90;;;3.30;99.90;;;;;;5052107;28;20056;-53
2022/01/20 06:12:21;;;;;;;12.70;4.22;;;3.20;99.90;;;;;;5051178;28;20039;-55
2022/01/20 06:15:06;;;;;;;9.63;3.13;;;3.30;99.90;;;;;;5052252;28;20063;-53
2022/01/20 06:17:50;;;;;;;13.85;3.50;;;3.30;99.90;;;;;;5051556;28;20605;-56
2022/01/20 06:20:35;;;;;;;13.88;4.15;;;3.30;99.90;;;;;;5052709;28;20681;-57
2022/01/20 06:23:20;;;;;;;14.13;4.68;;;3.00;99.90;;;;;;5052873;28;20040;-59
2022/01/20 06:26:05;;;;;;;11.68;3.25;;;2.50;99.90;;;;;;5052871;28;20531;-58
2022/01/20 06:28:52;;;;;;;18.90;3.60;;;2.10;99.90;;;;;;5052354;28;20417;-60
2022/01/20 06:31:36;;;;;;;16.80;3.75;;;1.70;99.90;;;;;;5049796;28;20094;-55
2022/01/20 06:34:20;;;;;;;13.57;3.83;;;1.70;99.90;;;;;;5049011;28;20032;-59
2022/01/20 06:37:07;;;;;;;14.50;3.70;;;1.70;99.90;;;;;;5051487;28;20076;-57
2022/01/20 06:39:51;;;;;;;14.00;3.72;;;1.80;99.90;;;;;;5051157;28;20474;-58
2022/01/20 06:42:36;;;;;;;13.60;3.33;;;1.70;99.90;;;;;;5050120;28;20083;-57
2022/01/20 06:45:22;;;;;;;14.88;3.70;;;1.80;99.90;;;;;;5052153;28;20079;-58
2022/01/20 06:48:07;;;;;;;10.23;3.03;;;1.80;99.90;;;;;;5050052;28;20087;-57
2022/01/20 06:50:51;;;;;;;9.18;3.00;;;2.00;99.90;;;;;;5045648;28;20102;-56
2022/01/20 06:53:35;;;;;;;13.10;2.97;;;1.80;99.90;;;;;;5050320;28;20091;-57
2022/01/20 06:56:19;;;;;;;13.93;3.30;;;1.70;99.90;;;;;;5050353;28;20519;-58
2022/01/20 06:59:03;;;;;;;13.75;3.28;;;1.70;99.90;;;;;;5049847;28;20553;-55
2022/01/20 07:01:48;;;;;;;11.75;3.83;;;1.80;99.90;;;;;;5046485;28;20519;-57
2022/01/20 07:04:32;;;;;;;10.70;3.40;;;1.90;99.90;;;;;;5051141;28;20134;-55
2022/01/20 07:07:17;;;;;;;10.95;3.15;;;2.00;99.90;;;;;;5044507;28;20037;-57
2022/01/20 07:10:01;;;;;;;7.90;2.97;;;2.00;99.90;;;;;;5078693;28;20074;-57
2022/01/20 07:12:49;;;;;;;7.25;2.92;;;2.10;99.90;;;;;;5047658;28;20110;-57
2022/01/20 07:15:33;;;;;;;12.10;3.63;;;2.10;99.90;;;;;;5054709;28;20036;-56
2022/01/20 07:18:17;;;;;;;14.68;2.95;;;2.10;99.90;;;;;;5055381;28;20206;-57
2022/01/20 07:21:01;;;;;;;18.15;4.20;;;2.10;99.90;;;;;;5054882;28;20047;-56
2022/01/20 07:23:45;;;;;;;13.68;3.17;;;2.20;99.90;;;;;;5055207;28;20566;-59
2022/01/20 07:26:29;;;;;;;10.45;3.45;;;2.20;99.90;;;;;;5044890;28;20070;-56
2022/01/20 07:29:14;;;;;;;13.50;3.80;;;2.20;99.90;;;;;;5053776;28;20036;-57
2022/01/20 07:31:59;;;;;;;12.38;3.30;;;2.20;99.90;;;;;;5050309;28;20039;-58
2022/01/20 07:34:44;;;;;;;10.30;3.38;;;2.20;99.90;;;;;;5054860;28;20412;-57
2022/01/20 07:37:28;;;;;;;9.00;2.78;;;2.20;99.90;;;;;;5054772;28;20539;-58
2022/01/20 07:40:12;;;;;;;13.40;4.15;;;2.30;99.90;;;;;;5054589;28;20036;-57
2022/01/20 07:42:57;;;;;;;13.75;3.67;;;2.20;99.90;;;;;;5054662;28;20032;-57
2022/01/20 07:45:41;;;;;;;11.47;2.90;;;2.20;99.90;;;;;;5037776;28;20052;-51
2022/01/20 07:48:25;;;;;;;8.10;2.88;;;2.30;99.90;;;;;;5046611;28;20278;-59
2022/01/20 07:51:10;;;;;;;7.93;2.78;;;2.30;99.90;;;;;;5054645;28;20060;-56
2022/01/20 07:53:54;;;;;;;14.25;2.90;;;2.30;99.90;;;;;;5034673;28;20043;-56
2022/01/20 07:56:49;;;;;;;14.85;2.95;;;2.40;99.90;;;;;;5054166;28;20083;-54
2022/01/20 07:59:34;;;;;;;17.55;3.40;;;2.40;99.90;;;;;;5055528;28;20028;-58
2022/01/20 08:02:18;;;;;;;13.52;3.42;;;2.30;99.90;;;;;;5049001;28;20447;-55
2022/01/20 08:05:03;;;;;;;11.30;3.23;;;2.40;99.90;;;;;;5054201;28;20159;-57
2022/01/20 08:07:48;;;;;;;;;;;2.40;99.90;;;;;;5054803;28;20040;-57
2022/01/20 08:10:34;;;;;;;15.87;4.40;;;2.30;99.90;;;;;;5053807;28;20007;-60
2022/01/20 08:13:18;;;;;;;13.80;3.22;;;2.30;99.90;;;;;;5051964;28;20343;-59
2022/01/20 08:16:02;;;;;;;8.93;2.88;;;2.30;99.90;;;;;;5052756;28;20396;-59
2022/01/20 08:18:46;;;;;;;17.77;3.13;;;2.40;99.90;;;;;;5039469;28;20036;-60
2022/01/20 08:21:30;;;;;;;6.68;3.33;;;2.50;99.90;;;;;;5052164;28;20035;-59
2022/01/20 08:24:14;;;;;;;11.23;3.20;;;2.50;99.90;;;;;;5049434;28;20396;-60
2022/01/20 08:26:59;;;;;;;13.15;3.20;;;2.50;99.90;;;;;;5047055;28;20089;-61
2022/01/20 08:29:44;;;;;;;17.20;4.18;;;2.50;99.90;;;;;;5054441;28;20450;-61
2022/01/20 08:32:29;;;;;;;15.23;3.55;;;2.50;99.90;;;;;;5054284;28;20063;-57
2022/01/20 08:35:13;;;;;;;11.10;3.58;;;2.50;99.90;;;;;;5050363;28;20048;-54
2022/01/20 08:37:59;;;;;;;17.80;3.45;;;2.50;99.90;;;;;;5052848;28;20040;-53
2022/01/20 08:40:44;;;;;;;17.30;3.60;;;2.50;99.90;;;;;;5053791;28;20095;-51
2022/01/20 08:43:28;;;;;;;13.13;3.92;;;2.60;99.90;;;;;;5053876;28;20143;-60
2022/01/20 08:46:13;;;;;;;15.52;4.40;;;2.60;99.90;;;;;;5032920;28;20041;-52
2022/01/20 08:48:57;;;;;;;;;;;2.60;99.90;;;;;;5052891;28;20032;-55
2022/01/20 08:51:42;;;;;;;12.20;4.70;;;2.50;99.90;;;;;;5048233;28;19955;-53
2022/01/20 08:54:26;;;;;;;13.40;3.63;;;2.50;99.90;;;;;;5051216;28;20246;-51
2022/01/20 08:57:10;;;;;;;12.55;3.33;;;2.50;99.90;;;;;;5053424;28;20082;-51
2022/01/20 08:59:56;;;;;;;11.25;3.13;;;2.50;99.90;;;;;;5053290;28;20078;-52
2022/01/20 09:02:40;;;;;;;14.02;4.05;;;2.50;99.90;;;;;;5050153;28;20063;-56
2022/01/20 09:05:24;;;;;;;14.33;3.40;;;2.40;99.90;;;;;;5053396;28;20388;-56
2022/01/20 09:08:10;;;;;;;12.50;3.50;;;2.40;99.90;;;;;;5052861;28;20562;-50
2022/01/20 09:10:55;;;;;;;14.07;3.85;;;2.50;99.90;;;;;;5053424;28;20059;-54
2022/01/20 09:16:43;;;;;;;11.95;3.92;;;2.50;99.90;;;;;;5052178;28;20039;-53
2022/01/20 09:19:27;;;;;;;15.20;3.90;;;2.60;99.90;;;;;;5052379;28;20120;-53
2022/01/20 09:22:12;;;;;;;12.90;3.70;;;2.50;99.90;;;;;;5052894;28;20143;-50
2022/01/20 09:24:56;;;;;;;13.52;3.50;;;2.50;99.90;;;;;;5054129;28;20043;-53
2022/01/20 09:27:40;;;;;;;13.88;3.42;;;2.50;99.90;;;;;;5052797;28;20032;-51
2022/01/20 09:30:26;;;;;;;13.23;3.92;;;2.50;99.90;;;;;;5049399;28;20032;-52
2022/01/20 09:33:14;;;;;;;;;;;2.60;99.90;;;;;;5051568;28;20059;-50
2022/01/20 09:35:59;;;;;;;15.77;4.28;;;2.50;99.90;;;;;;5054641;28;20333;-50
2022/01/20 09:38:43;;;;;;;;;;;2.50;99.90;;;;;;5054949;28;20412;-52
2022/01/20 09:41:27;;;;;;;15.57;4.63;;;2.60;99.90;;;;;;5053417;28;20411;-53
2022/01/20 09:44:11;;;;;;;18.65;4.15;;;2.80;99.90;;;;;;5049646;28;20140;-54
2022/01/20 09:46:56;;;;;;;15.95;4.03;;;2.80;99.90;;;;;;5050735;28;20516;-51
2022/01/20 09:49:41;;;;;;;17.60;4.43;;;2.80;99.90;;;;;;5048368;28;20076;-51
2022/01/20 09:52:27;;;;;;;16.85;4.63;;;2.80;99.90;;;;;;5051768;28;20044;-54
2022/01/20 09:55:12;;;;;;;19.50;5.10;;;2.80;99.90;;;;;;5047558;28;20086;-50
2022/01/20 09:57:56;;;;;;;18.15;4.57;;;2.70;99.90;;;;;;5051530;28;20394;-55
2022/01/20 10:00:42;;;;;;;15.60;3.97;;;2.70;99.90;;;;;;5053234;28;20031;-55
2022/01/20 10:03:29;;;;;;;15.98;4.55;;;2.70;99.90;;;;;;5035363;28;20266;-56
2022/01/20 10:06:14;;;;;;;11.23;4.10;;;2.70;99.90;;;;;;5052566;28;20070;-56
2022/01/20 10:09:00;;;;;;;15.30;4.47;;;2.80;99.90;;;;;;5052405;28;20043;-52
2022/01/20 10:11:45;;;;;;;17.33;4.35;;;2.80;99.90;;;;;;5048129;28;20516;-51
2022/01/20 10:14:49;;;;;;;14.77;4.70;;;2.80;99.90;;;;;;5047899;28;20553;-50
2022/01/20 10:17:33;;;;;;;17.10;4.55;;;2.90;99.90;;;;;;5041518;28;20159;-59
2022/01/20 10:20:17;;;;;;;18.98;5.78;;;3.00;99.90;;;;;;5051908;28;20170;-58
2022/01/20 10:23:04;;;;;;;12.75;3.85;;;3.00;99.90;;;;;;5051588;28;20469;-56
2022/01/20 10:25:48;;;;;;;11.05;3.90;;;3.00;99.90;;;;;;5051828;28;20176;-56
2022/01/20 10:28:46;;;;;;;11.25;3.78;;;3.00;99.90;;;;;;5032240;28;20389;-55
2022/01/20 10:31:38;;;;;;;16.05;6.05;;;3.00;99.90;;;;;;5031679;28;20032;-57
2022/01/20 10:34:35;;;;;;;16.58;3.88;;;3.00;99.90;;;;;;5039924;28;20040;-56
2022/01/20 10:37:24;;;;;;;71.55;7.28;;;2.90;99.90;;;;;;5063381;28;20050;-58
2022/01/20 10:40:14;;;;;;;13.90;3.85;;;2.90;99.90;;;;;;5051978;28;20522;-60
2022/01/20 10:42:58;;;;;;;14.63;4.40;;;3.00;99.90;;;;;;5053669;28;20040;-61
2022/01/20 10:45:42;;;;;;;14.80;4.20;;;2.90;99.90;;;;;;5057456;28;20215;-56
2022/01/20 10:48:27;;;;;;;10.45;4.40;;;2.90;99.90;;;;;;5061699;28;20080;-58
2022/01/20 10:51:19;;;;;;;21.10;4.93;;;3.00;99.90;;;;;;5063530;28;20087;-59
2022/01/20 10:54:11;;;;;;;19.20;4.30;;;3.10;99.90;;;;;;5062862;28;20032;-58
2022/01/20 10:56:57;;;;;;;13.25;4.18;;;3.20;99.90;;;;;;5059369;28;20032;-58
2022/01/20 11:00:02;;;;;;;14.57;5.25;;;3.40;99.90;;;;;;5060859;28;20103;-58
2022/01/20 11:02:56;;;;;;;14.40;4.43;;;3.30;99.90;;;;;;5061523;28;20040;-57
2022/01/20 11:05:44;;;;;;;15.13;4.47;;;3.30;99.60;;;;;;5061396;28;20343;-58
2022/01/20 11:08:29;;;;;;;14.60;3.83;;;3.40;99.50;;;;;;5060182;28;20048;-57
2022/01/20 11:11:14;;;;;;;;;;;3.50;98.80;;;;;;5063232;28;20407;-58
2022/01/20 11:13:58;;;;;;;15.63;4.28;;;3.60;98.80;;;;;;5044256;28;19928;-57
2022/01/20 11:16:43;;;;;;;18.80;4.10;;;3.50;98.30;;;;;;5051127;28;20395;-59
2022/01/20 11:19:35;;;;;;;17.52;4.72;;;3.40;98.70;;;;;;5064251;28;20273;-58
2022/01/20 11:22:20;;;;;;;18.38;4.63;;;3.30;98.20;;;;;;5061496;28;20128;-59
2022/01/20 11:25:10;;;;;;;15.13;4.28;;;3.30;98.40;;;;;;5062635;28;20067;-55
2022/01/20 11:28:12;;;;;;;14.52;4.45;;;3.30;98.60;;;;;;5063302;28;20037;-59
2022/01/20 11:31:00;;;;;;;17.65;3.97;;;3.40;98.30;;;;;;5063125;28;20078;-59
2022/01/20 11:33:45;;;;;;;14.60;4.00;;;3.30;98.10;;;;;;5061679;28;20453;-59
2022/01/20 11:36:31;;;;;;;17.92;4.18;;;3.50;98.20;;;;;;5063231;28;20036;-56
2022/01/20 11:39:19;;;;;;;10.43;3.78;;;3.60;97.80;;;;;;5062186;28;20048;-53
2022/01/20 11:42:03;;;;;;;15.02;4.75;;;3.50;97.50;;;;;;5063422;28;20040;-59
2022/01/20 11:44:52;;;;;;;18.98;5.68;;;3.40;97.00;;;;;;5063102;28;20404;-56
2022/01/20 11:47:36;;;;;;;10.82;3.47;;;3.50;96.80;;;;;;5062179;28;20055;-57
2022/01/20 11:50:21;;;;;;;15.40;3.63;;;3.50;96.60;;;;;;5061803;28;20040;-55
2022/01/20 11:53:11;;;;;;;14.10;3.65;;;3.70;96.70;;;;;;5061314;28;20113;-57
2022/01/20 11:55:55;;;;;;;14.88;4.10;;;3.80;96.70;;;;;;5062342;28;20531;-60
2022/01/20 11:58:49;;;;;;;16.10;4.40;;;3.70;96.30;;;;;;5060922;28;20075;-60
2022/01/20 12:01:52;;;;;;;17.58;4.13;;;3.70;95.70;;;;;;5061384;28;20056;-58
2022/01/20 12:04:40;;;;;;;13.70;4.70;;;3.60;95.70;;;;;;5062770;28;20090;-58
2022/01/20 12:07:30;;;;;;;14.65;4.20;;;3.50;96.40;;;;;;5061974;28;20381;-57
2022/01/20 12:10:26;;;;;;;13.68;3.92;;;3.60;96.20;;;;;;5061434;28;20028;-59
2022/01/20 12:13:13;;;;;;;11.90;4.25;;;3.50;96.20;;;;;;5060945;28;20036;-59
2022/01/20 12:16:00;;;;;;;17.23;3.72;;;3.50;95.90;;;;;;5060052;28;20086;-58
2022/01/20 12:18:49;;;;;;;14.57;4.10;;;3.50;96.40;;;;;;5059456;28;20098;-58
2022/01/20 12:21:34;;;;;;;16.42;3.85;;;3.40;97.00;;;;;;5062306;28;20060;-57
2022/01/20 12:24:20;;;;;;;;;;;3.40;97.50;;;;;;5044273;28;20041;-57
2022/01/20 12:27:15;;;;;;;14.15;4.38;;;3.50;97.60;;;;;;5042184;28;19916;-59
2022/01/20 12:30:00;;;;;;;14.80;4.00;;;3.30;97.60;;;;;;5047700;28;20094;-58
2022/01/20 12:32:55;;;;;;;12.50;3.88;;;3.40;97.70;;;;;;5061166;28;20090;-58
2022/01/20 12:35:52;;;;;;;12.85;3.80;;;3.40;97.80;;;;;;5061328;28;20086;-59
2022/01/20 12:38:39;;;;;;;11.32;3.47;;;3.40;97.60;;;;;;5062619;28;20110;-58
2022/01/20 12:41:24;;;;;;;17.63;3.53;;;3.40;97.20;;;;;;5062792;28;20188;-58
2022/01/20 12:44:12;;;;;;;9.55;3.42;;;3.50;97.20;;;;;;5054251;28;20028;-57
2022/01/20 12:46:56;;;;;;;12.85;3.58;;;3.40;97.40;;;;;;5050259;28;20086;-54
2022/01/20 12:49:40;;;;;;;13.38;3.67;;;3.20;98.10;;;;;;5053624;28;20078;-53
2022/01/20 12:52:24;;;;;;;11.55;3.75;;;3.10;98.50;;;;;;5054050;28;20048;-54
2022/01/20 12:55:08;;;;;;;12.03;3.93;;;3.00;99.00;;;;;;5053687;28;20051;-55
2022/01/20 12:57:59;;;;;;;14.38;3.35;;;3.10;99.40;;;;;;5053776;28;20032;-58
2022/01/20 13:00:43;;;;;;;11.45;3.47;;;3.00;99.70;;;;;;5052677;28;20044;-59
2022/01/20 13:03:39;;;;;;;11.80;3.28;;;2.90;99.90;;;;;;5053823;28;20040;-55
2022/01/20 13:06:27;;;;;;;11.55;3.40;;;2.90;99.90;;;;;;5054321;28;20032;-57
2022/01/20 13:09:12;;;;;;;13.35;3.60;;;3.00;99.90;;;;;;5053237;28;20043;-56
2022/01/20 13:11:59;;;;;;;14.25;3.42;;;2.90;99.90;;;;;;5053493;28;20039;-57
2022/01/20 13:14:48;;;;;;;12.70;3.40;;;2.90;99.90;;;;;;5034667;28;20041;-57
2022/01/20 13:17:35;;;;;;;12.60;3.47;;;3.00;99.90;;;;;;5046597;28;20040;-64
2022/01/20 13:20:22;;;;;;;15.52;3.88;;;3.00;99.90;;;;;;5053945;28;20059;-55
2022/01/20 13:26:06;;;;;;;11.60;3.10;;;2.70;99.90;;;;;;5053635;28;20036;-54
2022/01/20 13:29:20;;;;;;;9.30;3.03;;;2.80;99.90;;;;;;5034769;28;20072;-51
2022/01/20 13:32:05;;;;;;;9.13;2.95;;;2.70;99.90;;;;;;5043059;28;20040;-52
2022/01/20 13:35:00;;;;;;;12.00;3.65;;;2.80;99.90;;;;;;5053469;28;20401;-52
2022/01/20 13:37:47;;;;;;;9.07;3.20;;;2.70;99.90;;;;;;5052537;28;20098;-54
2022/01/20 13:40:32;;;;;;;9.55;3.00;;;2.80;99.90;;;;;;5051876;28;20087;-58
2022/01/20 13:46:21;;;;;;;12.05;3.88;;;2.80;99.90;;;;;;5044187;28;19958;-55
2022/01/20 13:49:12;;;;;;;10.27;3.10;;;2.90;99.90;;;;;;5052701;28;20400;-57
2022/01/20 13:52:09;;;;;;;15.18;4.30;;;2.80;99.90;;;;;;5032834;28;20040;-55
2022/01/20 13:54:56;;;;;;;13.52;3.78;;;2.70;99.90;;;;;;5039301;28;20039;-57
2022/01/20 13:57:41;;;;;;;9.90;4.00;;;2.70;99.90;;;;;;5045086;28;20094;-56
2022/01/20 14:00:31;;;;;;;8.85;3.38;;;2.80;99.90;;;;;;5043171;28;20118;-56
2022/01/20 14:03:15;;;;;;;13.63;4.20;;;2.80;99.90;;;;;;5052739;28;20032;-56
2022/01/20 14:06:00;;;;;;;16.58;3.47;;;2.90;99.90;;;;;;5051779;28;20120;-57
2022/01/20 14:08:44;;;;;;;18.77;5.97;;;2.90;99.90;;;;;;5052780;28;20040;-57
2022/01/20 14:11:28;;;;;;;19.50;3.95;;;2.90;99.90;;;;;;5052364;28;20458;-54
2022/01/20 14:14:12;;;;;;;12.57;4.20;;;2.80;99.90;;;;;;5051299;28;20108;-58
2022/01/20 14:17:04;;;;;;;8.45;3.45;;;2.90;99.90;;;;;;5052127;28;20043;-58
2022/01/20 14:19:56;;;;;;;14.85;4.10;;;3.00;99.90;;;;;;5052396;28;20052;-56
2022/01/20 14:22:41;;;;;;;14.77;3.72;;;2.90;99.90;;;;;;5050384;28;20086;-58
2022/01/20 14:25:25;;;;;;;15.73;4.45;;;2.80;99.80;;;;;;5052124;28;20161;-54
2022/01/20 14:28:10;;;;;;;8.75;3.75;;;2.80;99.90;;;;;;5052708;28;20094;-57
2022/01/20 14:30:55;;;;;;;13.73;3.35;;;2.80;99.90;;;;;;5052615;28;20514;-57
2022/01/20 14:33:40;;;;;;;11.65;3.83;;;3.00;99.90;;;;;;5050817;28;20064;-59
2022/01/20 14:36:24;;;;;;;9.63;3.07;;;3.20;99.50;;;;;;5052509;28;20518;-58
2022/01/20 14:39:08;;;;;;;8.48;3.33;;;3.20;99.50;;;;;;5052199;28;20090;-56
2022/01/20 14:41:52;;;;;;;8.43;3.15;;;3.10;99.90;;;;;;5051280;28;20040;-58
2022/01/20 14:44:39;;;;;;;11.50;3.70;;;2.90;99.90;;;;;;5051944;28;20040;-58
2022/01/20 14:47:24;;;;;;;7.68;2.80;;;2.60;99.90;;;;;;5052649;28;20027;-56
2022/01/20 14:50:09;;;;;;;9.38;3.03;;;2.70;99.90;;;;;;5051123;28;20040;-57
2022/01/20 14:52:54;;;;;;;13.63;3.05;;;2.60;99.90;;;;;;5051126;28;20094;-55
2022/01/20 14:55:39;;;;;;;10.20;3.25;;;2.50;99.90;;;;;;5051993;28;20396;-57
2022/01/20 14:58:23;;;;;;;9.63;3.17;;;2.40;99.90;;;;;;5052467;28;20087;-57
2022/01/20 15:01:09;;;;;;;9.27;3.17;;;2.40;99.90;;;;;;5052127;28;20048;-56
2022/01/20 15:03:54;;;;;;;8.90;3.42;;;2.30;99.90;;;;;;5052004;28;20044;-55
2022/01/20 15:06:41;;;;;;;3.97;2.50;;;2.30;99.90;;;;;;5051866;28;20044;-57
2022/01/20 15:09:25;;;;;;;9.32;2.85;;;2.30;99.90;;;;;;5052709;28;20056;-56
2022/01/20 15:12:10;;;;;;;9.85;2.95;;;2.30;99.90;;;;;;5050618;28;20071;-58
2022/01/20 15:14:54;;;;;;;8.27;2.63;;;2.20;99.90;;;;;;5052285;28;20036;-58
2022/01/20 15:17:39;;;;;;;6.47;2.63;;;2.30;99.90;;;;;;5052271;28;20044;-58
2022/01/20 15:20:23;;;;;;;5.78;2.67;;;2.20;99.90;;;;;;5051963;28;20035;-54
2022/01/20 15:23:07;;;;;;;9.52;2.83;;;2.20;99.90;;;;;;5051304;28;20098;-56
2022/01/20 15:25:51;;;;;;;4.30;2.40;;;2.10;99.90;;;;;;5044422;28;20529;-54
2022/01/20 15:28:36;;;;;;;6.93;2.63;;;2.10;99.90;;;;;;5052487;28;20052;-57
2022/01/20 15:31:20;;;;;;;7.05;2.17;;;2.00;99.90;;;;;;5055389;28;20032;-60